createdAt,value
2023-05-03T00:02:24.845Z,11.92
2023-05-03T00:04:55.185Z,11.83
2023-05-03T00:07:22.984Z,11.93
2023-05-03T00:09:50.300Z,11.70
2023-05-03T00:12:17.582Z,11.78
2023-05-03T00:14:46.239Z,11.60
2023-05-03T00:17:13.592Z,11.62
2023-05-03T00:19:40.663Z,11.55
2023-05-03T00:22:07.801Z,11.58
2023-05-03T00:24:35.591Z,11.68
2023-05-03T00:27:05.215Z,11.70
2023-05-03T00:29:32.446Z,11.63
2023-05-03T00:32:00.475Z,11.61
2023-05-03T00:34:27.684Z,11.59
2023-05-03T00:36:54.732Z,11.64
2023-05-03T00:39:21.774Z,11.70
2023-05-03T00:41:48.777Z,11.69
2023-05-03T00:44:16.271Z,11.61
2023-05-03T00:46:43.364Z,11.69
2023-05-03T00:49:10.508Z,11.51
2023-05-03T00:51:37.695Z,11.54
2023-05-03T00:54:04.944Z,11.58
2023-05-03T00:56:44.406Z,11.38
2023-05-03T00:59:19.158Z,11.49
2023-05-03T01:01:51.669Z,11.53
2023-05-03T01:04:20.176Z,11.52
2023-05-03T01:07:10.828Z,11.49
2023-05-03T01:10:06.214Z,11.52
2023-05-03T01:12:57.853Z,11.48
2023-05-03T01:16:01.022Z,11.26
2023-05-03T01:18:34.593Z,11.24
2023-05-03T01:21:05.352Z,11.31
2023-05-03T01:24:08.069Z,11.14
2023-05-03T01:26:35.166Z,11.17
2023-05-03T01:29:02.554Z,11.22
2023-05-03T01:31:39.277Z,11.04
2023-05-03T01:34:51.023Z,10.79
2023-05-03T01:37:18.877Z,10.62
2023-05-03T01:40:02.311Z,10.73
2023-05-03T01:42:31.093Z,10.63
2023-05-03T01:45:00.416Z,10.72
2023-05-03T01:47:27.982Z,10.66
2023-05-03T01:49:55.225Z,10.73
2023-05-03T01:52:24.237Z,10.72
2023-05-03T01:54:51.298Z,10.75
2023-05-03T01:57:18.334Z,10.74
2023-05-03T01:59:45.427Z,10.53
2023-05-03T02:02:12.538Z,10.58
2023-05-03T02:04:39.633Z,10.60
2023-05-03T02:07:06.739Z,10.58
2023-05-03T02:09:34.305Z,10.65
2023-05-03T02:12:01.336Z,10.63
2023-05-03T02:14:28.515Z,10.72
2023-05-03T02:16:56.051Z,10.69
2023-05-03T02:19:23.183Z,10.65
2023-05-03T02:21:50.473Z,10.77
2023-05-03T02:24:17.754Z,10.62
2023-05-03T02:26:44.875Z,10.54
2023-05-03T02:29:11.954Z,10.50
2023-05-03T02:31:39.069Z,10.63
2023-05-03T02:34:06.178Z,10.59
2023-05-03T02:36:33.248Z,10.55
2023-05-03T02:39:00.378Z,10.57
2023-05-03T02:41:27.591Z,10.44
2023-05-03T02:43:54.634Z,10.45
2023-05-03T02:46:21.767Z,10.38
2023-05-03T02:48:48.880Z,10.25
2023-05-03T02:51:16.151Z,10.40
2023-05-03T02:53:43.170Z,10.55
2023-05-03T02:56:10.162Z,10.36
2023-05-03T02:58:37.425Z,10.28
2023-05-03T03:01:04.725Z,10.37
2023-05-03T03:03:32.037Z,10.28
2023-05-03T03:05:59.314Z,10.37
2023-05-03T03:08:26.410Z,10.26
2023-05-03T03:10:53.445Z,10.23
2023-05-03T03:13:20.641Z,10.18
2023-05-03T03:15:47.741Z,10.34
2023-05-03T03:18:14.896Z,10.38
2023-05-03T03:20:43.512Z,10.27
2023-05-03T03:23:11.431Z,10.13
2023-05-03T03:25:38.499Z,10.10
2023-05-03T03:28:05.731Z,10.12
2023-05-03T03:30:32.769Z,10.20
2023-05-03T03:32:59.969Z,10.34
2023-05-03T03:35:27.684Z,10.27
2023-05-03T03:37:54.679Z,10.25
2023-05-03T03:40:21.767Z,10.11
2023-05-03T03:42:48.783Z,10.17
2023-05-03T03:45:15.785Z,10.38
2023-05-03T03:47:42.932Z,10.25
2023-05-03T03:50:10.668Z,10.22
2023-05-03T03:52:37.865Z,10.33
2023-05-03T03:55:05.513Z,10.24
2023-05-03T03:57:32.571Z,10.38
2023-05-03T03:59:59.827Z,10.52
2023-05-03T04:02:27.820Z,10.55
2023-05-03T04:04:55.043Z,10.79
2023-05-03T04:07:22.154Z,10.91
2023-05-03T04:09:49.295Z,10.86
2023-05-03T04:12:16.364Z,11.06
2023-05-03T04:14:43.499Z,11.22
2023-05-03T04:17:10.787Z,11.35
2023-05-03T04:19:38.720Z,11.29
2023-05-03T04:22:06.031Z,11.49
2023-05-03T04:24:33.143Z,11.97
2023-05-03T04:27:04.341Z,13.40
2023-05-03T04:29:31.659Z,15.31
2023-05-03T04:31:58.795Z,15.41
2023-05-03T04:34:26.010Z,16.32
2023-05-03T04:36:53.580Z,18.67
2023-05-03T04:39:22.162Z,18.82
2023-05-03T04:41:49.217Z,20.13
2023-05-03T04:44:16.473Z,19.93
2023-05-03T04:46:43.639Z,21.50
2023-05-03T04:49:10.927Z,19.17
2023-05-03T04:51:37.961Z,18.73
2023-05-03T04:54:05.163Z,17.67
2023-05-03T04:56:35.693Z,16.67
2023-05-03T04:59:02.838Z,16.27
2023-05-03T05:01:29.954Z,15.79
2023-05-03T05:03:57.171Z,16.67
2023-05-03T05:06:24.493Z,22.20
2023-05-03T05:08:51.482Z,25.29
2023-05-03T05:11:19.000Z,26.98
2023-05-03T05:13:46.124Z,28.60
2023-05-03T05:16:13.255Z,29.99
2023-05-03T05:18:40.398Z,29.66
2023-05-03T05:21:07.490Z,29.88
2023-05-03T05:23:34.551Z,31.60
2023-05-03T05:26:01.741Z,30.98
2023-05-03T05:28:29.242Z,30.93
2023-05-03T05:30:56.411Z,30.68
2023-05-03T05:33:24.518Z,31.34
2023-05-03T05:35:51.624Z,33.21
2023-05-03T05:38:18.793Z,31.80
2023-05-03T05:40:45.835Z,32.34
2023-05-03T05:43:12.952Z,32.49
2023-05-03T05:45:40.273Z,32.89
2023-05-03T05:48:08.331Z,32.13
2023-05-03T05:50:36.646Z,33.13
2023-05-03T05:53:03.702Z,32.54
2023-05-03T05:55:30.977Z,33.16
2023-05-03T05:57:58.069Z,33.65
2023-05-03T06:00:25.333Z,33.47
2023-05-03T06:02:52.689Z,33.48
2023-05-03T06:05:21.367Z,33.18
2023-05-03T06:07:49.619Z,35.01
2023-05-03T06:10:16.818Z,38.40
2023-05-03T06:12:44.031Z,37.40
2023-05-03T06:15:11.337Z,37.84
2023-05-03T06:17:38.440Z,37.37
2023-05-03T06:20:06.905Z,37.38
2023-05-03T06:22:34.185Z,37.10
2023-05-03T06:25:01.313Z,36.75
2023-05-03T06:27:28.357Z,36.77
2023-05-03T06:29:55.480Z,36.95
2023-05-03T06:32:23.498Z,36.94
2023-05-03T06:34:50.975Z,36.02
2023-05-03T06:37:17.980Z,36.42
2023-05-03T06:39:45.042Z,35.35
2023-05-03T06:42:12.197Z,36.73
2023-05-03T06:44:39.229Z,36.45
2023-05-03T06:47:06.452Z,35.79
2023-05-03T06:49:33.848Z,35.27
2023-05-03T06:52:00.927Z,35.41
2023-05-03T06:54:28.013Z,36.41
2023-05-03T06:56:55.073Z,35.80
2023-05-03T06:59:22.114Z,34.72
2023-05-03T07:01:50.848Z,35.97
2023-05-03T07:04:18.005Z,37.56
2023-05-03T07:06:55.841Z,34.59
2023-05-03T07:09:35.482Z,31.45
2023-05-03T07:12:09.524Z,31.14
2023-05-03T07:14:36.593Z,32.64
2023-05-03T07:17:03.738Z,33.60
2023-05-03T07:19:31.077Z,31.68
2023-05-03T07:21:58.218Z,31.76
2023-05-03T07:24:26.200Z,32.69
2023-05-03T07:26:54.079Z,33.20
2023-05-03T07:29:21.543Z,33.48
2023-05-03T07:31:49.937Z,32.59
2023-05-03T07:34:18.574Z,32.00
2023-05-03T07:36:45.666Z,32.39
2023-05-03T07:39:12.687Z,31.53
2023-05-03T07:41:39.853Z,29.55
2023-05-03T07:44:07.852Z,26.97
2023-05-03T07:46:35.524Z,25.32
2023-05-03T07:49:05.050Z,26.72
2023-05-03T07:51:39.396Z,26.38
2023-05-03T07:54:06.888Z,25.66
2023-05-03T07:56:34.128Z,25.51
2023-05-03T07:59:09.156Z,25.15
2023-05-03T08:01:38.270Z,25.11
2023-05-03T08:04:06.056Z,26.16
2023-05-03T08:06:35.722Z,26.83
2023-05-03T08:09:04.689Z,27.02
2023-05-03T08:11:32.250Z,27.56
2023-05-03T08:13:59.337Z,25.87
2023-05-03T08:16:26.537Z,25.94
2023-05-03T08:18:53.652Z,26.69
2023-05-03T08:21:22.154Z,27.40
2023-05-03T08:23:49.177Z,27.83
2023-05-03T08:26:16.303Z,28.55
2023-05-03T08:28:43.345Z,28.13
2023-05-03T08:31:10.504Z,26.19
2023-05-03T08:33:37.899Z,25.06
2023-05-03T08:36:05.736Z,24.60
2023-05-03T08:38:34.440Z,24.42
2023-05-03T08:41:14.122Z,25.31
2023-05-03T08:43:46.288Z,25.82
2023-05-03T08:46:14.073Z,26.14
2023-05-03T08:48:41.566Z,25.43
2023-05-03T08:51:10.094Z,26.08
2023-05-03T08:53:37.641Z,25.15
2023-05-03T08:56:12.633Z,24.56
2023-05-03T08:58:39.901Z,25.15
2023-05-03T09:01:09.858Z,25.89
2023-05-03T09:03:37.997Z,25.76
2023-05-03T09:06:26.393Z,25.43
2023-05-03T09:08:54.783Z,24.90
2023-05-03T09:11:27.808Z,23.17
2023-05-03T09:14:08.503Z,22.67
2023-05-03T09:16:36.093Z,23.02
2023-05-03T09:19:09.412Z,23.98
2023-05-03T09:21:38.078Z,23.82
2023-05-03T09:24:22.313Z,24.26
2023-05-03T09:26:52.023Z,23.71
2023-05-03T09:29:35.980Z,23.16
2023-05-03T09:32:06.541Z,24.17
2023-05-03T09:34:35.623Z,23.79
2023-05-03T09:37:02.769Z,23.46
2023-05-03T09:39:30.091Z,22.50
2023-05-03T09:41:57.240Z,23.50
2023-05-03T09:44:44.695Z,23.08
2023-05-03T09:47:12.533Z,23.59
2023-05-03T09:49:39.972Z,24.05
2023-05-03T09:52:08.346Z,25.07
2023-05-03T09:54:36.226Z,25.56
2023-05-03T09:57:08.549Z,25.76
2023-05-03T09:59:37.757Z,25.28
2023-05-03T10:02:07.757Z,25.67
2023-05-03T10:04:51.470Z,24.40
2023-05-03T10:07:22.074Z,22.71
2023-05-03T10:09:49.384Z,23.15
2023-05-03T10:12:18.034Z,22.70
2023-05-03T10:14:49.986Z,23.38
2023-05-03T10:17:46.983Z,23.88
2023-05-03T10:20:24.362Z,24.78
2023-05-03T10:23:07.626Z,23.72
2023-05-03T10:25:37.668Z,23.32
2023-05-03T10:28:09.831Z,23.04
2023-05-03T10:30:39.965Z,22.85
2023-05-03T10:33:12.979Z,22.96
2023-05-03T10:35:55.058Z,22.42
2023-05-03T10:38:28.141Z,22.58
2023-05-03T10:40:56.831Z,23.80
2023-05-03T10:43:32.260Z,23.82
2023-05-03T10:46:01.715Z,23.69
2023-05-03T10:48:30.312Z,23.58
2023-05-03T10:50:59.310Z,22.78
2023-05-03T10:53:35.453Z,22.12
2023-05-03T10:56:06.669Z,21.78
2023-05-03T10:58:43.968Z,21.50
2023-05-03T11:01:17.715Z,20.94
2023-05-03T11:04:01.091Z,20.91
2023-05-03T11:06:35.711Z,20.83
2023-05-03T11:09:06.802Z,20.84
2023-05-03T11:11:36.590Z,20.46
2023-05-03T11:14:04.361Z,20.64
2023-05-03T11:16:32.021Z,20.72
2023-05-03T11:19:00.556Z,20.86
2023-05-03T11:21:27.911Z,20.95
2023-05-03T11:23:55.168Z,20.79
2023-05-03T11:26:26.276Z,21.03
2023-05-03T11:28:54.574Z,21.01
2023-05-03T11:31:22.815Z,20.74
2023-05-03T11:33:51.208Z,20.92
2023-05-03T11:36:18.382Z,20.80
2023-05-03T11:38:46.076Z,20.94
2023-05-03T11:41:19.593Z,20.97
2023-05-03T11:43:57.507Z,20.85
2023-05-03T11:46:33.060Z,20.82
2023-05-03T11:49:02.204Z,20.36
2023-05-03T11:51:29.552Z,20.86
2023-05-03T11:53:57.190Z,20.25
2023-05-03T11:56:24.660Z,20.27
2023-05-03T11:58:59.765Z,20.21
2023-05-03T12:01:29.140Z,19.77
2023-05-03T12:04:02.559Z,19.66
2023-05-03T12:06:35.358Z,19.60
2023-05-03T12:09:05.437Z,19.94
2023-05-03T12:11:44.206Z,20.02
2023-05-03T12:14:12.286Z,20.22
2023-05-03T12:16:52.770Z,19.80
2023-05-03T12:19:39.266Z,19.27
2023-05-03T12:22:26.092Z,19.10
2023-05-03T12:24:54.126Z,18.99
2023-05-03T12:27:23.560Z,18.99
2023-05-03T12:29:51.904Z,18.94
2023-05-03T12:32:21.377Z,19.00
2023-05-03T12:34:51.901Z,19.09
2023-05-03T12:37:22.056Z,19.18
2023-05-03T12:40:01.497Z,19.05
2023-05-03T12:42:37.058Z,18.86
2023-05-03T12:45:05.312Z,18.48
2023-05-03T12:47:36.172Z,18.74
2023-05-03T12:50:06.216Z,19.36
2023-05-03T12:52:38.171Z,19.17
2023-05-03T12:55:11.341Z,19.12
2023-05-03T12:57:39.255Z,19.00
2023-05-03T13:00:21.157Z,19.03
2023-05-03T13:05:33.813Z,19.26
2023-05-03T13:08:09.196Z,19.24
2023-05-03T13:10:39.152Z,19.19
2023-05-03T13:13:07.156Z,19.38
2023-05-03T13:15:38.010Z,19.45
2023-05-03T13:18:07.413Z,19.52
2023-05-03T13:20:37.093Z,19.56
2023-05-03T13:23:04.817Z,19.55
2023-05-03T13:25:32.162Z,19.52
2023-05-03T13:28:01.937Z,19.95
2023-05-03T13:30:29.295Z,19.82
2023-05-03T13:32:56.477Z,19.48
2023-05-03T13:35:23.545Z,19.63
2023-05-03T13:37:51.101Z,19.40
2023-05-03T13:40:18.905Z,19.19
2023-05-03T13:42:46.048Z,19.36
2023-05-03T13:45:15.141Z,19.11
2023-05-03T13:48:04.965Z,19.01
2023-05-03T13:50:32.059Z,19.10
2023-05-03T13:52:59.218Z,18.99
2023-05-03T13:55:26.902Z,19.06
2023-05-03T13:57:54.142Z,18.97
2023-05-03T14:00:21.419Z,18.76
2023-05-03T14:02:48.808Z,18.58
2023-05-03T14:05:16.627Z,18.43
2023-05-03T14:07:43.796Z,18.37
2023-05-03T14:10:11.891Z,18.45
2023-05-03T14:12:39.111Z,18.58
2023-05-03T14:15:07.738Z,18.54
2023-05-03T14:17:34.957Z,18.65
2023-05-03T14:20:02.697Z,18.46
2023-05-03T14:22:30.055Z,18.54
2023-05-03T14:24:57.292Z,18.52
2023-05-03T14:27:24.461Z,18.47
2023-05-03T14:29:52.038Z,18.37
2023-05-03T14:32:24.497Z,18.21
2023-05-03T14:34:51.733Z,18.54
2023-05-03T14:37:18.840Z,18.48
2023-05-03T14:39:46.082Z,18.55
2023-05-03T14:42:13.228Z,18.45
2023-05-03T14:44:40.347Z,18.48
2023-05-03T14:47:08.397Z,18.58
2023-05-03T14:49:41.143Z,18.55
2023-05-03T14:52:09.007Z,18.29
2023-05-03T14:54:37.517Z,18.44
2023-05-03T14:57:05.125Z,18.11
2023-05-03T14:59:33.396Z,18.11
2023-05-03T15:02:01.699Z,17.91
2023-05-03T15:04:29.391Z,17.72
2023-05-03T15:07:04.260Z,17.65
2023-05-03T15:09:31.913Z,17.65
2023-05-03T15:11:59.741Z,17.75
2023-05-03T15:14:26.779Z,17.68
2023-05-03T15:16:53.894Z,17.63
2023-05-03T15:19:21.673Z,17.67
2023-05-03T15:21:50.947Z,17.73
2023-05-03T15:24:18.867Z,17.63
2023-05-03T15:26:47.082Z,17.47
2023-05-03T15:29:15.362Z,17.46
2023-05-03T15:31:42.973Z,17.48
2023-05-03T15:34:12.291Z,17.42
2023-05-03T15:36:40.661Z,17.15
2023-05-03T15:39:09.489Z,17.22
2023-05-03T15:41:36.522Z,17.18
2023-05-03T15:44:05.501Z,17.17
2023-05-03T15:46:34.578Z,17.40
2023-05-03T15:49:01.873Z,17.09
2023-05-03T15:51:29.430Z,16.94
2023-05-03T15:53:56.571Z,16.89
2023-05-03T15:56:23.787Z,16.88
2023-05-03T15:58:51.023Z,16.89
2023-05-03T16:01:18.811Z,16.90
2023-05-03T16:03:46.325Z,16.85
2023-05-03T16:06:16.823Z,16.73
2023-05-03T16:08:44.320Z,16.70
2023-05-03T16:11:12.968Z,16.68
2023-05-03T16:13:40.051Z,16.63
2023-05-03T16:16:07.295Z,16.71
2023-05-03T16:18:34.409Z,16.88
2023-05-03T16:21:02.636Z,16.86
2023-05-03T16:23:29.955Z,16.64
2023-05-03T16:25:57.190Z,16.57
2023-05-03T16:28:24.423Z,16.50
2023-05-03T16:30:51.807Z,16.41
2023-05-03T16:33:19.577Z,16.24
2023-05-03T16:35:46.637Z,16.31
2023-05-03T16:38:13.699Z,16.36
2023-05-03T16:40:42.517Z,16.28
2023-05-03T16:43:10.258Z,16.18
2023-05-03T16:45:37.622Z,16.10
2023-05-03T16:48:06.806Z,16.31
2023-05-03T16:50:37.095Z,16.35
2023-05-03T16:53:04.247Z,16.16
2023-05-03T16:55:31.426Z,16.15
2023-05-03T16:57:58.453Z,15.99
2023-05-03T17:00:25.901Z,16.14
2023-05-03T17:02:53.049Z,16.23
2023-05-03T17:05:20.426Z,16.32
2023-05-03T17:07:47.500Z,16.21
2023-05-03T17:10:14.768Z,16.08
2023-05-03T17:12:41.931Z,16.07
2023-05-03T17:15:10.249Z,15.86
2023-05-03T17:17:37.328Z,15.86
2023-05-03T17:20:05.320Z,15.84
2023-05-03T17:22:32.876Z,15.77
2023-05-03T17:24:59.996Z,15.68
2023-05-03T17:27:27.145Z,15.92
2023-05-03T17:29:57.522Z,15.73
2023-05-03T17:32:24.796Z,15.69
2023-05-03T17:34:51.986Z,15.65
2023-05-03T17:37:19.018Z,15.40
2023-05-03T17:39:46.368Z,15.37
2023-05-03T17:42:13.410Z,15.23
2023-05-03T17:44:40.960Z,15.15
2023-05-03T17:47:09.503Z,15.12
2023-05-03T17:49:36.626Z,15.10
2023-05-03T17:52:05.002Z,14.97
2023-05-03T17:54:32.311Z,14.93
2023-05-03T17:56:59.511Z,14.93
2023-05-03T17:59:26.540Z,14.77
2023-05-03T18:01:53.686Z,14.62
2023-05-03T18:04:20.900Z,14.62
2023-05-03T18:06:48.038Z,14.63
2023-05-03T18:09:16.497Z,14.66
2023-05-03T18:11:45.123Z,14.52
2023-05-03T18:14:12.485Z,14.41
2023-05-03T18:16:39.974Z,14.31
2023-05-03T18:19:07.344Z,14.33
2023-05-03T18:21:35.642Z,14.24
2023-05-03T18:24:03.845Z,14.25
2023-05-03T18:26:30.957Z,14.17
2023-05-03T18:28:59.378Z,14.17
2023-05-03T18:31:27.341Z,14.06
2023-05-03T18:33:54.522Z,13.99
2023-05-03T18:36:23.565Z,13.97
2023-05-03T18:38:53.274Z,13.84
2023-05-03T18:41:20.953Z,13.75
2023-05-03T18:43:47.987Z,13.63
2023-05-03T18:46:19.708Z,13.57
2023-05-03T18:48:47.895Z,13.73
2023-05-03T18:51:15.123Z,13.65
2023-05-03T18:53:43.524Z,13.59
2023-05-03T18:56:10.907Z,13.45
2023-05-03T18:58:38.257Z,13.45
2023-05-03T19:01:06.037Z,13.33
2023-05-03T19:03:33.595Z,13.31
2023-05-03T19:06:07.331Z,13.24
2023-05-03T19:08:35.767Z,13.07
2023-05-03T19:11:14.510Z,13.06
2023-05-03T19:13:44.826Z,12.94
2023-05-03T19:16:12.513Z,12.83
2023-05-03T19:18:44.326Z,12.74
2023-05-03T19:21:17.753Z,12.70
2023-05-03T19:23:45.353Z,12.59
2023-05-03T19:26:12.457Z,12.47
2023-05-03T19:28:40.436Z,12.53
2023-05-03T19:31:07.797Z,12.45
2023-05-03T19:33:34.907Z,12.41
2023-05-03T19:36:06.597Z,12.35
2023-05-03T19:38:36.469Z,12.08
2023-05-03T19:41:09.664Z,12.05
2023-05-03T19:43:36.791Z,11.86
2023-05-03T19:46:04.631Z,11.77
2023-05-03T19:48:32.399Z,11.77
2023-05-03T19:51:00.461Z,11.72
2023-05-03T19:53:28.513Z,11.86
2023-05-03T19:56:01.017Z,11.93
2023-05-03T19:58:29.001Z,11.75
2023-05-03T20:00:58.980Z,11.68
2023-05-03T20:03:26.974Z,11.53
2023-05-03T20:05:54.215Z,11.65
2023-05-03T20:08:21.345Z,11.56
2023-05-03T20:10:49.869Z,11.53
2023-05-03T20:13:17.272Z,11.40
2023-05-03T20:15:44.480Z,11.33
2023-05-03T20:18:11.539Z,11.30
2023-05-03T20:20:39.124Z,11.25
2023-05-03T20:23:06.286Z,11.17
2023-05-03T20:25:33.827Z,11.03
2023-05-03T20:28:01.013Z,10.86
2023-05-03T20:30:29.769Z,10.71
2023-05-03T20:32:56.883Z,10.96
2023-05-03T20:35:24.042Z,11.00
2023-05-03T20:37:51.212Z,10.86
2023-05-03T20:40:18.278Z,10.75
2023-05-03T20:42:45.354Z,10.77
2023-05-03T20:45:12.745Z,10.62
2023-05-03T20:47:39.830Z,10.59
2023-05-03T20:50:08.904Z,10.48
2023-05-03T20:52:36.386Z,10.47
2023-05-03T20:55:03.562Z,10.36
2023-05-03T20:57:31.587Z,10.43
2023-05-03T21:00:00.431Z,10.48
2023-05-03T21:02:27.568Z,10.41
2023-05-03T21:04:54.639Z,10.41
2023-05-03T21:07:21.737Z,10.33
2023-05-03T21:09:48.713Z,10.15
2023-05-03T21:12:15.807Z,10.11
2023-05-03T21:14:42.869Z,10.12
2023-05-03T21:17:12.229Z,10.22
2023-05-03T21:19:39.942Z,10.12
2023-05-03T21:22:11.603Z,10.01
2023-05-03T21:24:38.848Z,10.00
2023-05-03T21:27:05.869Z,9.97
2023-05-03T21:29:33.118Z,9.89
2023-05-03T21:32:00.380Z,9.91
2023-05-03T21:34:27.799Z,9.90
2023-05-03T21:36:54.854Z,9.89
2023-05-03T21:39:21.986Z,9.92
2023-05-03T21:41:49.024Z,9.87
2023-05-03T21:44:16.093Z,9.77
2023-05-03T21:46:43.267Z,9.64
2023-05-03T21:49:10.487Z,9.54
2023-05-03T21:51:37.678Z,9.64
2023-05-03T21:54:04.837Z,9.73
2023-05-03T21:56:31.958Z,9.76
2023-05-03T21:58:59.012Z,9.68
2023-05-03T22:01:26.147Z,9.70
2023-05-03T22:03:53.502Z,9.79
2023-05-03T22:06:21.790Z,9.79
2023-05-03T22:08:49.349Z,9.78
2023-05-03T22:11:16.442Z,9.71
2023-05-03T22:13:58.750Z,9.54
2023-05-03T22:16:26.551Z,9.53
2023-05-03T22:18:53.641Z,9.49
2023-05-03T22:21:20.893Z,9.36
2023-05-03T22:23:48.197Z,9.45
2023-05-03T22:26:15.253Z,9.47
2023-05-03T22:28:42.608Z,9.39
2023-05-03T22:31:09.692Z,9.36
2023-05-03T22:33:36.815Z,9.23
2023-05-03T22:36:04.502Z,9.06
2023-05-03T22:38:31.873Z,9.18
2023-05-03T22:40:58.941Z,9.14
2023-05-03T22:43:26.058Z,8.90
2023-05-03T22:45:53.107Z,9.08
2023-05-03T22:48:20.237Z,9.10
2023-05-03T22:50:47.267Z,9.14
2023-05-03T22:53:14.358Z,8.95
2023-05-03T22:55:41.542Z,8.91
2023-05-03T22:58:08.649Z,8.79
2023-05-03T23:00:35.677Z,8.68
2023-05-03T23:03:02.829Z,8.69
2023-05-03T23:05:30.467Z,8.69
2023-05-03T23:07:57.481Z,8.69
2023-05-03T23:10:24.865Z,8.60
2023-05-03T23:12:51.968Z,8.56
2023-05-03T23:15:19.195Z,8.59
2023-05-03T23:17:46.569Z,8.67
2023-05-03T23:20:13.953Z,8.40
2023-05-03T23:22:42.295Z,8.40
2023-05-03T23:25:09.889Z,8.49
2023-05-03T23:27:37.425Z,8.48
2023-05-03T23:30:05.887Z,8.43
2023-05-03T23:32:33.490Z,8.39
2023-05-03T23:35:01.241Z,8.21
2023-05-03T23:37:28.691Z,8.21
2023-05-03T23:39:55.865Z,8.30
2023-05-03T23:42:24.356Z,8.29
2023-05-03T23:44:55.264Z,8.27
2023-05-03T23:47:23.599Z,8.11
2023-05-03T23:49:51.111Z,8.19
2023-05-03T23:52:19.873Z,8.03
2023-05-03T23:54:47.035Z,8.06
2023-05-03T23:57:14.170Z,7.99
2023-05-03T23:59:41.194Z,8.02
